sensor_id;sensor_type;location;lat;lon;timestamp;pressure;altitude;pressure_sealevel;temperature;humidity
57376;BME280;44805;45.048;5.062;2023-05-14T00:00:52;99638.63;;;12.51;100.00
57376;BME280;44805;45.048;5.062;2023-05-14T00:03:17;99665.38;;;12.64;100.00
57376;BME280;44805;45.048;5.062;2023-05-14T00:05:42;99603.28;;;12.35;100.00
57376;BME280;44805;45.048;5.062;2023-05-14T00:08:08;99608.22;;;12.38;100.00
57376;BME280;44805;45.048;5.062;2023-05-14T00:10:34;99624.44;;;12.60;100.00
57376;BME280;44805;45.048;5.062;2023-05-14T00:13:17;99635.63;;;12.54;100.00
57376;BME280;44805;45.048;5.062;2023-05-14T00:15:43;99602.63;;;12.33;100.00
57376;BME280;44805;45.048;5.062;2023-05-14T00:18:08;99644.59;;;12.77;100.00
57376;BME280;44805;45.048;5.062;2023-05-14T00:20:36;99582.81;;;12.29;100.00
57376;BME280;44805;45.048;5.062;2023-05-14T00:23:01;99544.34;;;12.02;100.00
57376;BME280;44805;45.048;5.062;2023-05-14T00:25:27;99587.91;;;12.14;100.00
57376;BME280;44805;45.048;5.062;2023-05-14T00:28:25;99643.56;;;12.54;100.00
57376;BME280;44805;45.048;5.062;2023-05-14T00:30:50;99643.25;;;12.57;100.00
57376;BME280;44805;45.048;5.062;2023-05-14T00:33:16;99599.97;;;12.33;100.00
57376;BME280;44805;45.048;5.062;2023-05-14T00:35:41;99588.94;;;12.30;100.00
57376;BME280;44805;45.048;5.062;2023-05-14T00:38:07;99578.03;;;12.16;100.00
57376;BME280;44805;45.048;5.062;2023-05-14T00:40:32;99595.03;;;12.30;100.00
57376;BME280;44805;45.048;5.062;2023-05-14T00:42:58;99553.56;;;11.98;100.00
57376;BME280;44805;45.048;5.062;2023-05-14T00:45:24;99626.56;;;12.40;100.00
57376;BME280;44805;45.048;5.062;2023-05-14T00:47:50;99569.78;;;12.11;100.00
57376;BME280;44805;45.048;5.062;2023-05-14T00:50:16;99616.81;;;12.32;100.00
57376;BME280;44805;45.048;5.062;2023-05-14T00:52:42;99576.00;;;12.02;100.00
57376;BME280;44805;45.048;5.062;2023-05-14T00:55:08;99607.53;;;12.20;100.00
57376;BME280;44805;45.048;5.062;2023-05-14T01:04:09;99597.13;;;12.19;100.00
57376;BME280;44805;45.048;5.062;2023-05-14T01:09:33;99597.31;;;12.09;100.00
57376;BME280;44805;45.048;5.062;2023-05-14T01:12:21;99512.56;;;11.53;100.00
57376;BME280;44805;45.048;5.062;2023-05-14T01:14:54;99608.00;;;12.07;100.00
57376;BME280;44805;45.048;5.062;2023-05-14T01:17:21;99555.31;;;11.81;100.00
57376;BME280;44805;45.048;5.062;2023-05-14T01:19:49;99607.19;;;12.07;100.00
57376;BME280;44805;45.048;5.062;2023-05-14T01:22:15;99546.03;;;11.61;100.00
57376;BME280;44805;45.048;5.062;2023-05-14T01:24:41;99512.69;;;11.43;100.00
57376;BME280;44805;45.048;5.062;2023-05-14T01:29:40;99536.03;;;11.81;100.00
57376;BME280;44805;45.048;5.062;2023-05-14T01:32:08;99568.56;;;11.98;100.00
57376;BME280;44805;45.048;5.062;2023-05-14T01:34:35;99523.31;;;11.68;100.00
57376;BME280;44805;45.048;5.062;2023-05-14T01:37:03;99563.97;;;12.08;100.00
57376;BME280;44805;45.048;5.062;2023-05-14T01:39:30;99596.84;;;12.22;100.00
57376;BME280;44805;45.048;5.062;2023-05-14T01:41:56;99552.75;;;11.98;100.00
57376;BME280;44805;45.048;5.062;2023-05-14T01:44:23;99534.88;;;11.83;100.00
57376;BME280;44805;45.048;5.062;2023-05-14T01:46:49;99484.91;;;11.65;100.00
57376;BME280;44805;45.048;5.062;2023-05-14T01:49:14;99564.44;;;12.03;100.00
57376;BME280;44805;45.048;5.062;2023-05-14T01:51:42;99521.84;;;11.82;100.00
57376;BME280;44805;45.048;5.062;2023-05-14T01:54:07;99550.91;;;11.98;100.00
57376;BME280;44805;45.048;5.062;2023-05-14T01:56:33;99585.28;;;12.14;100.00
57376;BME280;44805;45.048;5.062;2023-05-14T01:58:58;99537.75;;;12.06;100.00
57376;BME280;44805;45.048;5.062;2023-05-14T02:01:24;99560.84;;;12.12;100.00
57376;BME280;44805;45.048;5.062;2023-05-14T02:03:50;99492.66;;;11.75;100.00
57376;BME280;44805;45.048;5.062;2023-05-14T02:06:15;99520.69;;;11.84;100.00
57376;BME280;44805;45.048;5.062;2023-05-14T02:08:41;99533.88;;;11.84;100.00
57376;BME280;44805;45.048;5.062;2023-05-14T02:11:06;99516.38;;;11.75;100.00
57376;BME280;44805;45.048;5.062;2023-05-14T02:13:47;99567.28;;;12.10;100.00
57376;BME280;44805;45.048;5.062;2023-05-14T02:16:12;99533.13;;;11.92;100.00
57376;BME280;44805;45.048;5.062;2023-05-14T02:18:38;99555.03;;;11.92;100.00
57376;BME280;44805;45.048;5.062;2023-05-14T02:21:03;99566.44;;;12.01;100.00
57376;BME280;44805;45.048;5.062;2023-05-14T02:23:29;99528.59;;;11.76;100.00
57376;BME280;44805;45.048;5.062;2023-05-14T02:25:54;99590.56;;;12.14;100.00
57376;BME280;44805;45.048;5.062;2023-05-14T02:28:20;99558.19;;;11.96;100.00
57376;BME280;44805;45.048;5.062;2023-05-14T02:30:45;99560.31;;;11.92;100.00
57376;BME280;44805;45.048;5.062;2023-05-14T02:33:10;99521.47;;;11.60;100.00
57376;BME280;44805;45.048;5.062;2023-05-14T02:35:36;99525.91;;;11.60;100.00
57376;BME280;44805;45.048;5.062;2023-05-14T02:38:01;99537.00;;;11.80;100.00
57376;BME280;44805;45.048;5.062;2023-05-14T02:40:27;99579.47;;;12.11;100.00
57376;BME280;44805;45.048;5.062;2023-05-14T02:42:52;99521.81;;;11.65;100.00
57376;BME280;44805;45.048;5.062;2023-05-14T02:45:18;99520.63;;;11.60;100.00
57376;BME280;44805;45.048;5.062;2023-05-14T02:47:43;99581.09;;;11.95;100.00
57376;BME280;44805;45.048;5.062;2023-05-14T02:50:09;99562.16;;;12.00;100.00
57376;BME280;44805;45.048;5.062;2023-05-14T02:52:35;99588.06;;;12.13;100.00
57376;BME280;44805;45.048;5.062;2023-05-14T02:55:01;99513.09;;;11.73;100.00
57376;BME280;44805;45.048;5.062;2023-05-14T02:57:26;99573.22;;;12.20;100.00
57376;BME280;44805;45.048;5.062;2023-05-14T03:00:07;99522.34;;;11.85;100.00
57376;BME280;44805;45.048;5.062;2023-05-14T03:02:33;99545.16;;;12.03;100.00
57376;BME280;44805;45.048;5.062;2023-05-14T03:05:00;99576.53;;;12.22;100.00
57376;BME280;44805;45.048;5.062;2023-05-14T03:07:25;99560.19;;;12.02;100.00
57376;BME280;44805;45.048;5.062;2023-05-14T03:09:50;99563.78;;;11.93;100.00
57376;BME280;44805;45.048;5.062;2023-05-14T03:12:16;99515.06;;;11.71;100.00
57376;BME280;44805;45.048;5.062;2023-05-14T03:15:07;99579.19;;;12.14;100.00
57376;BME280;44805;45.048;5.062;2023-05-14T03:17:33;99569.91;;;12.10;100.00
57376;BME280;44805;45.048;5.062;2023-05-14T03:19:58;99574.22;;;12.19;100.00
57376;BME280;44805;45.048;5.062;2023-05-14T03:22:24;99552.25;;;12.10;100.00
57376;BME280;44805;45.048;5.062;2023-05-14T03:24:49;99572.91;;;12.23;100.00
57376;BME280;44805;45.048;5.062;2023-05-14T03:27:15;99542.66;;;11.93;100.00
57376;BME280;44805;45.048;5.062;2023-05-14T03:30:08;99568.63;;;12.22;100.00
57376;BME280;44805;45.048;5.062;2023-05-14T03:32:35;99538.25;;;12.02;100.00
57376;BME280;44805;45.048;5.062;2023-05-14T03:35:01;99516.13;;;11.94;100.00
57376;BME280;44805;45.048;5.062;2023-05-14T03:37:27;99533.97;;;12.09;100.00
57376;BME280;44805;45.048;5.062;2023-05-14T03:39:52;99497.31;;;11.89;100.00
57376;BME280;44805;45.048;5.062;2023-05-14T03:42:17;99536.63;;;12.17;100.00
57376;BME280;44805;45.048;5.062;2023-05-14T03:45:02;99565.00;;;12.31;100.00
57376;BME280;44805;45.048;5.062;2023-05-14T03:47:27;99528.03;;;12.15;100.00
57376;BME280;44805;45.048;5.062;2023-05-14T03:49:53;99575.56;;;12.31;100.00
57376;BME280;44805;45.048;5.062;2023-05-14T03:52:18;99509.22;;;11.93;100.00
57376;BME280;44805;45.048;5.062;2023-05-14T03:54:44;99499.31;;;11.87;100.00
57376;BME280;44805;45.048;5.062;2023-05-14T03:57:09;99523.09;;;12.04;100.00
57376;BME280;44805;45.048;5.062;2023-05-14T04:02:43;99543.19;;;12.21;100.00
57376;BME280;44805;45.048;5.062;2023-05-14T04:05:09;99537.94;;;12.29;100.00
57376;BME280;44805;45.048;5.062;2023-05-14T04:07:34;99529.84;;;12.06;100.00
57376;BME280;44805;45.048;5.062;2023-05-14T04:10:01;99518.44;;;11.98;100.00
57376;BME280;44805;45.048;5.062;2023-05-14T04:12:27;99538.78;;;12.22;100.00
57376;BME280;44805;45.048;5.062;2023-05-14T04:18:00;99549.81;;;12.25;100.00
57376;BME280;44805;45.048;5.062;2023-05-14T04:20:25;99555.75;;;12.35;100.00
57376;BME280;44805;45.048;5.062;2023-05-14T04:22:51;99530.00;;;12.05;100.00
57376;BME280;44805;45.048;5.062;2023-05-14T04:25:17;99541.91;;;12.17;100.00
57376;BME280;44805;45.048;5.062;2023-05-14T04:27:42;99560.03;;;12.28;100.00
57376;BME280;44805;45.048;5.062;2023-05-14T04:33:29;99565.47;;;12.19;100.00
57376;BME280;44805;45.048;5.062;2023-05-14T04:35:55;99536.56;;;11.92;100.00
57376;BME280;44805;45.048;5.062;2023-05-14T04:38:20;99567.63;;;12.15;100.00
57376;BME280;44805;45.048;5.062;2023-05-14T04:40:46;99525.16;;;11.84;100.00
57376;BME280;44805;45.048;5.062;2023-05-14T04:43:11;99550.44;;;12.03;100.00
57376;BME280;44805;45.048;5.062;2023-05-14T04:46:01;99580.53;;;12.34;100.00
57376;BME280;44805;45.048;5.062;2023-05-14T04:48:27;99552.78;;;12.30;100.00
57376;BME280;44805;45.048;5.062;2023-05-14T04:50:52;99581.00;;;12.46;100.00
57376;BME280;44805;45.048;5.062;2023-05-14T04:53:18;99513.53;;;12.19;100.00
57376;BME280;44805;45.048;5.062;2023-05-14T04:55:43;99543.06;;;12.47;100.00
57376;BME280;44805;45.048;5.062;2023-05-14T04:58:09;99582.66;;;12.72;100.00
57376;BME280;44805;45.048;5.062;2023-05-14T05:00:34;99503.97;;;12.26;100.00
57376;BME280;44805;45.048;5.062;2023-05-14T05:03:00;99544.03;;;12.71;100.00
57376;BME280;44805;45.048;5.062;2023-05-14T05:05:25;99583.97;;;12.76;100.00
57376;BME280;44805;45.048;5.062;2023-05-14T05:07:50;99589.75;;;12.79;100.00
57376;BME280;44805;45.048;5.062;2023-05-14T05:10:16;99561.03;;;12.68;100.00
57376;BME280;44805;45.048;5.062;2023-05-14T05:12:41;99489.28;;;12.32;100.00
57376;BME280;44805;45.048;5.062;2023-05-14T05:15:32;99577.88;;;12.75;100.00
57376;BME280;44805;45.048;5.062;2023-05-14T05:17:57;99584.47;;;12.79;100.00
57376;BME280;44805;45.048;5.062;2023-05-14T05:20:22;99526.88;;;12.50;100.00
57376;BME280;44805;45.048;5.062;2023-05-14T05:22:49;99575.53;;;12.89;100.00
57376;BME280;44805;45.048;5.062;2023-05-14T05:25:14;99582.13;;;13.01;100.00
57376;BME280;44805;45.048;5.062;2023-05-14T05:27:40;99504.44;;;12.46;100.00
57376;BME280;44805;45.048;5.062;2023-05-14T05:30:06;99487.28;;;12.42;100.00
57376;BME280;44805;45.048;5.062;2023-05-14T05:32:32;99555.53;;;12.94;100.00
57376;BME280;44805;45.048;5.062;2023-05-14T05:34:58;99551.75;;;12.89;100.00
57376;BME280;44805;45.048;5.062;2023-05-14T05:37:23;99573.22;;;13.02;100.00
57376;BME280;44805;45.048;5.062;2023-05-14T05:39:49;99593.66;;;13.16;100.00
57376;BME280;44805;45.048;5.062;2023-05-14T05:42:14;99552.78;;;12.88;100.00
57376;BME280;44805;45.048;5.062;2023-05-14T05:44:40;99574.38;;;12.99;100.00
57376;BME280;44805;45.048;5.062;2023-05-14T05:47:05;99510.53;;;12.63;100.00
57376;BME280;44805;45.048;5.062;2023-05-14T05:49:31;99532.47;;;12.80;100.00
57376;BME280;44805;45.048;5.062;2023-05-14T05:51:57;99494.03;;;12.53;100.00
57376;BME280;44805;45.048;5.062;2023-05-14T05:54:23;99587.06;;;13.12;100.00
57376;BME280;44805;45.048;5.062;2023-05-14T05:56:51;99579.50;;;13.01;100.00
57376;BME280;44805;45.048;5.062;2023-05-14T06:02:40;99551.25;;;13.01;100.00
57376;BME280;44805;45.048;5.062;2023-05-14T06:05:06;99585.91;;;13.23;100.00
57376;BME280;44805;45.048;5.062;2023-05-14T06:07:33;99540.22;;;12.81;100.00
57376;BME280;44805;45.048;5.062;2023-05-14T06:09:58;99580.78;;;13.21;100.00
57376;BME280;44805;45.048;5.062;2023-05-14T06:12:23;99552.41;;;12.99;100.00
57376;BME280;44805;45.048;5.062;2023-05-14T06:14:49;99549.09;;;12.97;100.00
57376;BME280;44805;45.048;5.062;2023-05-14T06:17:15;99568.44;;;13.06;100.00
57376;BME280;44805;45.048;5.062;2023-05-14T06:19:41;99556.50;;;13.10;100.00
57376;BME280;44805;45.048;5.062;2023-05-14T06:22:06;99539.34;;;12.97;100.00
57376;BME280;44805;45.048;5.062;2023-05-14T06:24:31;99602.59;;;13.32;100.00
57376;BME280;44805;45.048;5.062;2023-05-14T06:26:57;99563.97;;;13.06;100.00
57376;BME280;44805;45.048;5.062;2023-05-14T06:29:22;99551.72;;;13.05;100.00
57376;BME280;44805;45.048;5.062;2023-05-14T06:31:49;99514.44;;;12.84;100.00
57376;BME280;44805;45.048;5.062;2023-05-14T06:34:14;99604.00;;;13.51;100.00
57376;BME280;44805;45.048;5.062;2023-05-14T06:36:40;99542.28;;;13.19;100.00
57376;BME280;44805;45.048;5.062;2023-05-14T06:39:05;99578.47;;;13.27;100.00
57376;BME280;44805;45.048;5.062;2023-05-14T06:41:31;99579.09;;;13.37;100.00
57376;BME280;44805;45.048;5.062;2023-05-14T06:43:56;99604.22;;;13.33;100.00
57376;BME280;44805;45.048;5.062;2023-05-14T06:46:22;99491.69;;;12.82;100.00
57376;BME280;44805;45.048;5.062;2023-05-14T06:48:47;99600.50;;;13.58;100.00
57376;BME280;44805;45.048;5.062;2023-05-14T06:51:13;99501.84;;;13.02;100.00
57376;BME280;44805;45.048;5.062;2023-05-14T06:53:39;99502.84;;;13.01;100.00
57376;BME280;44805;45.048;5.062;2023-05-14T06:56:09;99600.19;;;13.61;100.00
57376;BME280;44805;45.048;5.062;2023-05-14T06:58:35;99604.22;;;13.33;100.00
57376;BME280;44805;45.048;5.062;2023-05-14T07:04:25;99514.50;;;12.67;100.00
57376;BME280;44805;45.048;5.062;2023-05-14T07:06:50;99541.19;;;12.89;100.00
57376;BME280;44805;45.048;5.062;2023-05-14T07:09:16;99543.34;;;12.77;100.00
57376;BME280;44805;45.048;5.062;2023-05-14T07:11:41;99576.22;;;12.91;100.00
57376;BME280;44805;45.048;5.062;2023-05-14T07:17:28;99611.00;;;13.35;100.00
57376;BME280;44805;45.048;5.062;2023-05-14T07:19:54;99576.50;;;13.20;100.00
57376;BME280;44805;45.048;5.062;2023-05-14T07:22:22;99545.47;;;12.90;100.00
57376;BME280;44805;45.048;5.062;2023-05-14T07:24:47;99544.44;;;13.07;100.00
57376;BME280;44805;45.048;5.062;2023-05-14T07:27:13;99527.47;;;12.93;100.00
57376;BME280;44805;45.048;5.062;2023-05-14T07:29:39;99526.50;;;12.86;100.00
57376;BME280;44805;45.048;5.062;2023-05-14T07:32:04;99579.59;;;13.32;100.00
57376;BME280;44805;45.048;5.062;2023-05-14T07:34:30;99544.63;;;12.97;100.00
57376;BME280;44805;45.048;5.062;2023-05-14T07:36:55;99582.06;;;13.42;100.00
57376;BME280;44805;45.048;5.062;2023-05-14T07:39:21;99600.50;;;13.66;100.00
57376;BME280;44805;45.048;5.062;2023-05-14T07:41:46;99513.69;;;13.62;100.00
57376;BME280;44805;45.048;5.062;2023-05-14T07:44:24;99607.28;;;14.54;100.00
57376;BME280;44805;45.048;5.062;2023-05-14T07:46:49;99599.50;;;14.76;99.15
57376;BME280;44805;45.048;5.062;2023-05-14T07:49:15;99551.31;;;14.49;100.00
57376;BME280;44805;45.048;5.062;2023-05-14T07:51:40;99541.31;;;14.60;100.00
57376;BME280;44805;45.048;5.062;2023-05-14T07:54:06;99560.59;;;14.91;97.09
57376;BME280;44805;45.048;5.062;2023-05-14T07:56:31;99561.00;;;14.80;97.88
57376;BME280;44805;45.048;5.062;2023-05-14T07:58:57;99529.28;;;14.72;97.37
57376;BME280;44805;45.048;5.062;2023-05-14T08:01:22;99593.44;;;15.20;97.67
57376;BME280;44805;45.048;5.062;2023-05-14T08:03:48;99535.44;;;14.87;96.64
57376;BME280;44805;45.048;5.062;2023-05-14T08:06:13;99555.28;;;15.21;96.45
57376;BME280;44805;45.048;5.062;2023-05-14T08:08:39;99597.00;;;15.12;96.77
57376;BME280;44805;45.048;5.062;2023-05-14T08:11:05;99598.16;;;14.95;95.92
57376;BME280;44805;45.048;5.062;2023-05-14T08:13:30;99602.34;;;14.89;95.58
57376;BME280;44805;45.048;5.062;2023-05-14T08:15:56;99532.84;;;14.64;96.01
57376;BME280;44805;45.048;5.062;2023-05-14T08:18:21;99584.56;;;15.13;95.64
57376;BME280;44805;45.048;5.062;2023-05-14T08:20:47;99557.56;;;15.54;91.07
57376;BME280;44805;45.048;5.062;2023-05-14T08:23:12;99597.00;;;15.57;90.72
57376;BME280;44805;45.048;5.062;2023-05-14T08:25:38;99594.69;;;15.98;89.14
57376;BME280;44805;45.048;5.062;2023-05-14T08:28:03;99475.84;;;14.98;90.49
57376;BME280;44805;45.048;5.062;2023-05-14T08:30:29;99541.84;;;15.08;91.61
57376;BME280;44805;45.048;5.062;2023-05-14T08:32:54;99582.91;;;15.41;91.21
57376;BME280;44805;45.048;5.062;2023-05-14T08:35:20;99513.88;;;15.20;90.62
57376;BME280;44805;45.048;5.062;2023-05-14T08:37:45;99536.44;;;15.46;91.92
57376;BME280;44805;45.048;5.062;2023-05-14T08:40:11;99585.69;;;15.99;92.26
57376;BME280;44805;45.048;5.062;2023-05-14T08:42:38;99589.91;;;15.72;91.16
57376;BME280;44805;45.048;5.062;2023-05-14T08:45:16;99548.09;;;15.30;90.31
57376;BME280;44805;45.048;5.062;2023-05-14T08:47:46;99574.69;;;15.07;92.90
57376;BME280;44805;45.048;5.062;2023-05-14T08:50:13;99570.81;;;14.94;94.32
57376;BME280;44805;45.048;5.062;2023-05-14T08:52:38;99543.19;;;14.51;96.08
57376;BME280;44805;45.048;5.062;2023-05-14T08:55:04;99581.78;;;14.91;96.71
57376;BME280;44805;45.048;5.062;2023-05-14T08:57:31;99601.06;;;14.85;97.75
57376;BME280;44805;45.048;5.062;2023-05-14T09:00:04;99597.91;;;15.05;95.35
57376;BME280;44805;45.048;5.062;2023-05-14T09:02:33;99598.19;;;14.72;99.91
57376;BME280;44805;45.048;5.062;2023-05-14T09:05:02;99598.53;;;14.92;98.22
57376;BME280;44805;45.048;5.062;2023-05-14T09:07:28;99570.41;;;14.68;95.75
57376;BME280;44805;45.048;5.062;2023-05-14T09:09:54;99595.84;;;14.77;97.58
57376;BME280;44805;45.048;5.062;2023-05-14T09:12:20;99580.69;;;15.01;95.50
57376;BME280;44805;45.048;5.062;2023-05-14T09:14:47;99539.16;;;14.78;94.76
57376;BME280;44805;45.048;5.062;2023-05-14T09:17:13;99565.63;;;15.46;91.62
57376;BME280;44805;45.048;5.062;2023-05-14T09:19:39;99536.88;;;15.64;89.60
57376;BME280;44805;45.048;5.062;2023-05-14T09:22:08;99580.84;;;16.03;89.45
57376;BME280;44805;45.048;5.062;2023-05-14T09:24:34;99584.03;;;16.35;86.87
57376;BME280;44805;45.048;5.062;2023-05-14T09:27:00;99507.03;;;15.77;85.01
57376;BME280;44805;45.048;5.062;2023-05-14T09:29:27;99547.59;;;17.00;100.00
57376;BME280;44805;45.048;5.062;2023-05-14T09:31:54;99497.16;;;16.85;100.00
57376;BME280;44805;45.048;5.062;2023-05-14T09:34:28;99563.94;;;16.75;98.29
57376;BME280;44805;45.048;5.062;2023-05-14T09:37:02;99534.69;;;16.47;93.54
57376;BME280;44805;45.048;5.062;2023-05-14T09:39:28;99530.97;;;16.69;91.83
57376;BME280;44805;45.048;5.062;2023-05-14T09:41:54;99584.84;;;16.57;87.45
57376;BME280;44805;45.048;5.062;2023-05-14T09:44:20;99498.00;;;15.41;88.83
57376;BME280;44805;45.048;5.062;2023-05-14T09:46:47;99572.91;;;15.88;94.90
57376;BME280;44805;45.048;5.062;2023-05-14T09:49:13;99567.56;;;16.24;94.58
57376;BME280;44805;45.048;5.062;2023-05-14T09:51:39;99561.31;;;15.74;93.04
57376;BME280;44805;45.048;5.062;2023-05-14T09:54:05;99604.16;;;15.71;95.68
57376;BME280;44805;45.048;5.062;2023-05-14T09:56:34;99558.09;;;15.49;95.66
57376;BME280;44805;45.048;5.062;2023-05-14T09:59:03;99582.75;;;15.43;96.61
57376;BME280;44805;45.048;5.062;2023-05-14T10:01:35;99611.94;;;15.88;95.11
57376;BME280;44805;45.048;5.062;2023-05-14T10:04:06;99610.00;;;15.81;94.34
57376;BME280;44805;45.048;5.062;2023-05-14T10:06:36;99584.63;;;15.94;96.57
57376;BME280;44805;45.048;5.062;2023-05-14T10:09:05;99549.50;;;16.13;92.91
57376;BME280;44805;45.048;5.062;2023-05-14T10:11:36;99601.16;;;16.32;91.48
57376;BME280;44805;45.048;5.062;2023-05-14T10:14:13;99567.16;;;15.84;92.38
57376;BME280;44805;45.048;5.062;2023-05-14T10:16:46;99569.72;;;16.57;90.60
57376;BME280;44805;45.048;5.062;2023-05-14T10:19:14;99576.00;;;16.49;87.13
57376;BME280;44805;45.048;5.062;2023-05-14T10:21:44;99576.81;;;16.71;89.31
57376;BME280;44805;45.048;5.062;2023-05-14T10:24:10;99564.72;;;16.69;88.44
57376;BME280;44805;45.048;5.062;2023-05-14T10:26:37;99585.03;;;16.77;87.62
57376;BME280;44805;45.048;5.062;2023-05-14T10:29:08;99587.16;;;17.16;86.32
57376;BME280;44805;45.048;5.062;2023-05-14T10:31:49;99556.69;;;17.19;85.35
57376;BME280;44805;45.048;5.062;2023-05-14T10:34:41;99586.25;;;17.02;84.41
57376;BME280;44805;45.048;5.062;2023-05-14T10:39:50;99547.31;;;17.29;84.83
57376;BME280;44805;45.048;5.062;2023-05-14T10:42:21;99564.28;;;17.22;82.76
57376;BME280;44805;45.048;5.062;2023-05-14T10:44:59;99530.72;;;17.21;84.41
57376;BME280;44805;45.048;5.062;2023-05-14T10:47:30;99580.69;;;17.67;83.82
57376;BME280;44805;45.048;5.062;2023-05-14T10:50:01;99568.59;;;17.29;83.57
57376;BME280;44805;45.048;5.062;2023-05-14T10:52:28;99539.38;;;17.36;81.26
57376;BME280;44805;45.048;5.062;2023-05-14T10:54:59;99519.53;;;16.97;82.18
57376;BME280;44805;45.048;5.062;2023-05-14T10:57:28;99518.41;;;17.20;80.31
57376;BME280;44805;45.048;5.062;2023-05-14T11:03:50;99553.38;;;17.51;77.24
57376;BME280;44805;45.048;5.062;2023-05-14T11:06:17;99563.38;;;17.84;77.05
57376;BME280;44805;45.048;5.062;2023-05-14T11:08:42;99549.59;;;17.74;78.12
57376;BME280;44805;45.048;5.062;2023-05-14T11:11:08;99495.66;;;17.58;78.01
57376;BME280;44805;45.048;5.062;2023-05-14T11:16:10;99541.31;;;18.10;74.79
57376;BME280;44805;45.048;5.062;2023-05-14T11:18:38;99512.44;;;18.27;73.63
57376;BME280;44805;45.048;5.062;2023-05-14T11:21:05;99529.03;;;18.56;75.26
57376;BME280;44805;45.048;5.062;2023-05-14T11:23:31;99510.56;;;18.21;73.57
57376;BME280;44805;45.048;5.062;2023-05-14T11:25:56;99535.16;;;18.16;73.40
57376;BME280;44805;45.048;5.062;2023-05-14T11:28:23;99476.53;;;18.10;72.49
57376;BME280;44805;45.048;5.062;2023-05-14T11:31:20;99537.25;;;18.34;70.92
57376;BME280;44805;45.048;5.062;2023-05-14T11:33:46;99527.38;;;18.15;72.07
57376;BME280;44805;45.048;5.062;2023-05-14T11:36:11;99527.00;;;18.44;72.11
57376;BME280;44805;45.048;5.062;2023-05-14T11:38:47;99482.66;;;18.04;72.25
57376;BME280;44805;45.048;5.062;2023-05-14T11:41:13;99535.00;;;18.44;71.54
57376;BME280;44805;45.048;5.062;2023-05-14T11:43:39;99475.72;;;18.36;71.08
57376;BME280;44805;45.048;5.062;2023-05-14T11:46:39;99524.75;;;18.55;70.09
57376;BME280;44805;45.048;5.062;2023-05-14T11:49:05;99495.38;;;17.95;69.15
57376;BME280;44805;45.048;5.062;2023-05-14T11:51:31;99524.28;;;18.11;69.38
57376;BME280;44805;45.048;5.062;2023-05-14T11:53:57;99491.88;;;17.81;70.23
57376;BME280;44805;45.048;5.062;2023-05-14T11:56:25;99517.50;;;18.09;69.55
57376;BME280;44805;45.048;5.062;2023-05-14T11:58:57;99477.91;;;17.79;70.06
57376;BME280;44805;45.048;5.062;2023-05-14T12:01:22;99502.78;;;18.26;70.44
57376;BME280;44805;45.048;5.062;2023-05-14T12:03:49;99517.94;;;18.39;70.25
57376;BME280;44805;45.048;5.062;2023-05-14T12:06:14;99506.47;;;18.38;67.71
57376;BME280;44805;45.048;5.062;2023-05-14T12:08:40;99454.63;;;18.28;67.66
57376;BME280;44805;45.048;5.062;2023-05-14T12:11:07;99419.97;;;18.01;66.66
57376;BME280;44805;45.048;5.062;2023-05-14T12:13:33;99507.91;;;18.61;67.62
57376;BME280;44805;45.048;5.062;2023-05-14T12:16:01;99491.28;;;18.92;65.94
57376;BME280;44805;45.048;5.062;2023-05-14T12:18:28;99406.97;;;18.84;64.84
57376;BME280;44805;45.048;5.062;2023-05-14T12:20:54;99467.50;;;19.36;64.19
57376;BME280;44805;45.048;5.062;2023-05-14T12:23:30;99466.13;;;19.26;63.47
57376;BME280;44805;45.048;5.062;2023-05-14T12:26:03;99480.47;;;19.39;65.26
57376;BME280;44805;45.048;5.062;2023-05-14T12:28:30;99494.00;;;19.44;64.43
57376;BME280;44805;45.048;5.062;2023-05-14T12:30:56;99453.47;;;19.02;63.77
57376;BME280;44805;45.048;5.062;2023-05-14T12:33:22;99451.84;;;19.01;63.92
57376;BME280;44805;45.048;5.062;2023-05-14T12:35:48;99431.16;;;18.90;64.36
57376;BME280;44805;45.048;5.062;2023-05-14T12:38:14;99456.19;;;18.89;63.66
57376;BME280;44805;45.048;5.062;2023-05-14T12:40:40;99453.00;;;19.18;63.87
57376;BME280;44805;45.048;5.062;2023-05-14T12:43:05;99446.03;;;19.17;63.59
57376;BME280;44805;45.048;5.062;2023-05-14T12:45:30;99418.53;;;19.23;62.54
57376;BME280;44805;45.048;5.062;2023-05-14T12:47:56;99434.47;;;19.30;62.25
57376;BME280;44805;45.048;5.062;2023-05-14T12:50:21;99476.63;;;19.21;64.08
57376;BME280;44805;45.048;5.062;2023-05-14T12:52:47;99424.06;;;18.50;62.72
57376;BME280;44805;45.048;5.062;2023-05-14T12:55:12;99412.59;;;18.23;65.26
57376;BME280;44805;45.048;5.062;2023-05-14T12:57:38;99397.63;;;18.15;65.51
57376;BME280;44805;45.048;5.062;2023-05-14T13:00:04;99413.16;;;18.65;65.42
57376;BME280;44805;45.048;5.062;2023-05-14T13:02:33;99465.63;;;18.84;64.86
57376;BME280;44805;45.048;5.062;2023-05-14T13:04:58;99411.47;;;18.91;64.33
57376;BME280;44805;45.048;5.062;2023-05-14T13:07:27;99410.06;;;18.81;63.31
57376;BME280;44805;45.048;5.062;2023-05-14T13:09:54;99439.63;;;18.60;64.62
57376;BME280;44805;45.048;5.062;2023-05-14T13:12:19;99392.06;;;18.43;68.38
57376;BME280;44805;45.048;5.062;2023-05-14T13:14:45;99351.50;;;18.28;67.63
57376;BME280;44805;45.048;5.062;2023-05-14T13:17:10;99429.34;;;18.70;68.52
57376;BME280;44805;45.048;5.062;2023-05-14T13:19:36;99390.03;;;18.26;62.34
57376;BME280;44805;45.048;5.062;2023-05-14T13:22:01;99396.78;;;18.55;60.36
57376;BME280;44805;45.048;5.062;2023-05-14T13:24:27;99452.63;;;19.08;61.09
57376;BME280;44805;45.048;5.062;2023-05-14T13:26:52;99393.22;;;18.81;62.39
57376;BME280;44805;45.048;5.062;2023-05-14T13:29:18;99407.13;;;18.96;61.21
57376;BME280;44805;45.048;5.062;2023-05-14T13:31:43;99422.13;;;18.91;61.94
57376;BME280;44805;45.048;5.062;2023-05-14T13:34:08;99436.63;;;19.08;62.04
57376;BME280;44805;45.048;5.062;2023-05-14T13:36:34;99396.41;;;19.03;62.05